sensor_id;sensor_type;location;lat;lon;timestamp;pressure;altitude;pressure_sealevel;temperature;humidity
69058;BME280;56128;37.534;-122.308;2023-02-12T00:00:50;101134.19;;;9.87;89.37
69058;BME280;56128;37.534;-122.308;2023-02-12T00:03:17;101138.56;;;9.88;91.01
69058;BME280;56128;37.534;-122.308;2023-02-12T00:05:43;101125.63;;;9.82;89.27
69058;BME280;56128;37.534;-122.308;2023-02-12T00:08:09;101143.03;;;9.87;89.62
69058;BME280;56128;37.534;-122.308;2023-02-12T00:10:41;101150.09;;;9.88;93.48
69058;BME280;56128;37.534;-122.308;2023-02-12T00:13:11;101141.22;;;9.75;90.38
69058;BME280;56128;37.534;-122.308;2023-02-12T00:15:40;101170.75;;;9.86;90.62
69058;BME280;56128;37.534;-122.308;2023-02-12T00:18:07;101170.50;;;9.77;96.32
69058;BME280;56128;37.534;-122.308;2023-02-12T00:20:33;101192.72;;;9.77;100.00
69058;BME280;56128;37.534;-122.308;2023-02-12T00:23:00;101168.66;;;9.50;100.00
69058;BME280;56128;37.534;-122.308;2023-02-12T00:25:26;101186.31;;;9.52;95.96
69058;BME280;56128;37.534;-122.308;2023-02-12T00:27:52;101195.69;;;9.45;100.00
69058;BME280;56128;37.534;-122.308;2023-02-12T00:30:19;101187.31;;;9.37;100.00
69058;BME280;56128;37.534;-122.308;2023-02-12T00:32:45;101197.03;;;9.38;100.00
69058;BME280;56128;37.534;-122.308;2023-02-12T00:35:12;101215.06;;;9.49;100.00
69058;BME280;56128;37.534;-122.308;2023-02-12T00:37:38;101210.66;;;9.48;100.00
69058;BME280;56128;37.534;-122.308;2023-02-12T00:40:05;101184.94;;;9.32;97.69
69058;BME280;56128;37.534;-122.308;2023-02-12T00:42:32;101191.31;;;9.30;100.00
69058;BME280;56128;37.534;-122.308;2023-02-12T00:44:58;101205.66;;;9.29;99.16
69058;BME280;56128;37.534;-122.308;2023-02-12T00:47:24;101221.38;;;9.33;100.00
69058;BME280;56128;37.534;-122.308;2023-02-12T00:49:51;101215.28;;;9.31;97.78
69058;BME280;56128;37.534;-122.308;2023-02-12T00:52:17;101226.81;;;9.32;100.00
69058;BME280;56128;37.534;-122.308;2023-02-12T00:54:43;101225.00;;;9.32;97.22
69058;BME280;56128;37.534;-122.308;2023-02-12T00:57:09;101198.78;;;9.24;96.70
69058;BME280;56128;37.534;-122.308;2023-02-12T00:59:36;101218.25;;;9.26;98.47
69058;BME280;56128;37.534;-122.308;2023-02-12T01:02:04;101221.84;;;9.25;100.00
69058;BME280;56128;37.534;-122.308;2023-02-12T01:04:31;101209.13;;;9.43;94.03
69058;BME280;56128;37.534;-122.308;2023-02-12T01:06:57;101202.66;;;9.48;97.16
69058;BME280;56128;37.534;-122.308;2023-02-12T01:09:23;101238.00;;;9.66;97.59
69058;BME280;56128;37.534;-122.308;2023-02-12T01:11:49;101212.00;;;9.40;100.00
69058;BME280;56128;37.534;-122.308;2023-02-12T01:14:16;101193.16;;;9.29;100.00
69058;BME280;56128;37.534;-122.308;2023-02-12T01:16:42;101194.69;;;9.19;100.00
69058;BME280;56128;37.534;-122.308;2023-02-12T01:19:10;101220.03;;;9.26;100.00
69058;BME280;56128;37.534;-122.308;2023-02-12T01:21:36;101211.94;;;9.13;100.00
69058;BME280;56128;37.534;-122.308;2023-02-12T01:24:03;101230.19;;;9.06;100.00
69058;BME280;56128;37.534;-122.308;2023-02-12T01:26:30;101226.53;;;8.93;100.00
69058;BME280;56128;37.534;-122.308;2023-02-12T01:28:59;101215.59;;;8.69;100.00
69058;BME280;56128;37.534;-122.308;2023-02-12T01:31:29;101227.41;;;8.65;100.00
69058;BME280;56128;37.534;-122.308;2023-02-12T01:33:57;101216.34;;;8.40;100.00
69058;BME280;56128;37.534;-122.308;2023-02-12T01:36:25;101255.75;;;8.51;100.00
69058;BME280;56128;37.534;-122.308;2023-02-12T01:38:51;101232.91;;;8.31;100.00
69058;BME280;56128;37.534;-122.308;2023-02-12T01:41:21;101211.03;;;8.10;100.00
69058;BME280;56128;37.534;-122.308;2023-02-12T01:44:07;101234.31;;;8.22;100.00
69058;BME280;56128;37.534;-122.308;2023-02-12T01:46:34;101205.56;;;7.97;100.00
69058;BME280;56128;37.534;-122.308;2023-02-12T01:49:06;101212.63;;;7.98;100.00
69058;BME280;56128;37.534;-122.308;2023-02-12T01:51:34;101209.78;;;7.85;100.00
69058;BME280;56128;37.534;-122.308;2023-02-12T01:54:05;101217.28;;;7.78;100.00
69058;BME280;56128;37.534;-122.308;2023-02-12T01:56:33;101212.75;;;7.64;100.00
69058;BME280;56128;37.534;-122.308;2023-02-12T01:58:59;101205.47;;;7.52;100.00
69058;BME280;56128;37.534;-122.308;2023-02-12T02:01:28;101243.09;;;7.62;100.00
69058;BME280;56128;37.534;-122.308;2023-02-12T02:04:03;101224.19;;;7.35;100.00
69058;BME280;56128;37.534;-122.308;2023-02-12T02:07:00;101254.75;;;7.43;100.00
69058;BME280;56128;37.534;-122.308;2023-02-12T02:09:29;101227.69;;;7.19;100.00
69058;BME280;56128;37.534;-122.308;2023-02-12T02:11:56;101237.88;;;7.11;100.00
69058;BME280;56128;37.534;-122.308;2023-02-12T02:14:41;101261.16;;;7.23;100.00
69058;BME280;56128;37.534;-122.308;2023-02-12T02:20:12;101250.56;;;7.06;100.00
69058;BME280;56128;37.534;-122.308;2023-02-12T02:31:38;101241.44;;;6.60;100.00
69058;BME280;56128;37.534;-122.308;2023-02-12T02:39:38;101250.56;;;6.37;100.00
69058;BME280;56128;37.534;-122.308;2023-02-12T02:42:36;101252.84;;;6.27;100.00
69058;BME280;56128;37.534;-122.308;2023-02-12T02:45:32;101271.59;;;6.24;100.00
69058;BME280;56128;37.534;-122.308;2023-02-12T02:48:36;101287.06;;;6.16;100.00
69058;BME280;56128;37.534;-122.308;2023-02-12T02:51:19;101280.47;;;6.06;100.00
69058;BME280;56128;37.534;-122.308;2023-02-12T02:54:14;101295.31;;;6.10;100.00
69058;BME280;56128;37.534;-122.308;2023-02-12T02:56:44;101281.75;;;5.97;100.00
69058;BME280;56128;37.534;-122.308;2023-02-12T02:59:16;101281.97;;;5.92;100.00
69058;BME280;56128;37.534;-122.308;2023-02-12T03:01:45;101322.13;;;6.05;100.00
69058;BME280;56128;37.534;-122.308;2023-02-12T03:04:21;101300.09;;;5.84;100.00
69058;BME280;56128;37.534;-122.308;2023-02-12T03:06:59;101329.53;;;5.98;100.00
69058;BME280;56128;37.534;-122.308;2023-02-12T03:09:40;101327.50;;;5.84;100.00
69058;BME280;56128;37.534;-122.308;2023-02-12T03:12:17;101294.91;;;5.62;100.00
69058;BME280;56128;37.534;-122.308;2023-02-12T03:14:58;101332.25;;;5.78;100.00
69058;BME280;56128;37.534;-122.308;2023-02-12T03:17:31;101328.06;;;5.72;100.00
69058;BME280;56128;37.534;-122.308;2023-02-12T03:22:38;101336.19;;;5.88;100.00
69058;BME280;56128;37.534;-122.308;2023-02-12T03:25:17;101331.16;;;5.82;100.00
69058;BME280;56128;37.534;-122.308;2023-02-12T03:27:48;101337.09;;;5.87;100.00
69058;BME280;56128;37.534;-122.308;2023-02-12T03:30:17;101299.66;;;5.55;100.00
69058;BME280;56128;37.534;-122.308;2023-02-12T03:33:08;101284.94;;;5.48;100.00
69058;BME280;56128;37.534;-122.308;2023-02-12T03:36:19;101325.22;;;5.77;100.00
69058;BME280;56128;37.534;-122.308;2023-02-12T03:38:52;101307.19;;;5.64;100.00
69058;BME280;56128;37.534;-122.308;2023-02-12T03:41:34;101322.91;;;5.69;100.00
69058;BME280;56128;37.534;-122.308;2023-02-12T03:45:16;101328.78;;;5.76;100.00
69058;BME280;56128;37.534;-122.308;2023-02-12T03:52:11;101337.28;;;5.84;100.00
69058;BME280;56128;37.534;-122.308;2023-02-12T03:54:37;101356.81;;;6.02;100.00
69058;BME280;56128;37.534;-122.308;2023-02-12T03:57:09;101352.63;;;5.96;100.00
69058;BME280;56128;37.534;-122.308;2023-02-12T03:59:38;101380.84;;;6.18;100.00
69058;BME280;56128;37.534;-122.308;2023-02-12T04:02:06;101350.66;;;6.01;100.00
69058;BME280;56128;37.534;-122.308;2023-02-12T04:04:33;101348.06;;;6.00;100.00
69058;BME280;56128;37.534;-122.308;2023-02-12T04:07:00;101340.19;;;5.97;100.00
69058;BME280;56128;37.534;-122.308;2023-02-12T04:09:27;101355.97;;;6.01;100.00
69058;BME280;56128;37.534;-122.308;2023-02-12T04:25:55;101356.09;;;5.98;100.00
69058;BME280;56128;37.534;-122.308;2023-02-12T04:31:05;101344.94;;;5.90;100.00
69058;BME280;56128;37.534;-122.308;2023-02-12T04:33:41;101314.47;;;5.80;100.00
69058;BME280;56128;37.534;-122.308;2023-02-12T04:36:18;101329.09;;;5.89;100.00
69058;BME280;56128;37.534;-122.308;2023-02-12T04:38:51;101349.63;;;6.04;100.00
69058;BME280;56128;37.534;-122.308;2023-02-12T04:41:18;101328.94;;;5.92;100.00
69058;BME280;56128;37.534;-122.308;2023-02-12T04:43:45;101343.31;;;6.07;100.00
69058;BME280;56128;37.534;-122.308;2023-02-12T04:46:11;101301.81;;;5.85;100.00
69058;BME280;56128;37.534;-122.308;2023-02-12T04:48:51;101333.69;;;6.04;100.00
69058;BME280;56128;37.534;-122.308;2023-02-12T04:51:18;101329.22;;;6.05;100.00
69058;BME280;56128;37.534;-122.308;2023-02-12T04:53:46;101307.75;;;5.90;100.00
69058;BME280;56128;37.534;-122.308;2023-02-12T04:56:12;101324.47;;;5.92;100.00
69058;BME280;56128;37.534;-122.308;2023-02-12T04:58:40;101301.50;;;5.72;100.00
69058;BME280;56128;37.534;-122.308;2023-02-12T06:07:44;101319.28;;;4.92;100.00
69058;BME280;56128;37.534;-122.308;2023-02-12T06:10:10;101294.50;;;4.72;100.00
69058;BME280;56128;37.534;-122.308;2023-02-12T06:12:37;101315.19;;;4.85;100.00
69058;BME280;56128;37.534;-122.308;2023-02-12T06:15:03;101286.88;;;4.65;100.00
69058;BME280;56128;37.534;-122.308;2023-02-12T06:17:29;101325.63;;;4.88;100.00
69058;BME280;56128;37.534;-122.308;2023-02-12T06:19:56;101324.88;;;4.86;100.00
69058;BME280;56128;37.534;-122.308;2023-02-12T06:22:22;101300.19;;;4.63;100.00
69058;BME280;56128;37.534;-122.308;2023-02-12T06:24:48;101280.91;;;4.60;100.00
69058;BME280;56128;37.534;-122.308;2023-02-12T06:27:14;101318.94;;;4.79;100.00
69058;BME280;56128;37.534;-122.308;2023-02-12T06:29:41;101275.94;;;4.52;100.00
69058;BME280;56128;37.534;-122.308;2023-02-12T06:32:07;101302.03;;;4.61;100.00
69058;BME280;56128;37.534;-122.308;2023-02-12T06:34:34;101285.88;;;4.47;100.00
69058;BME280;56128;37.534;-122.308;2023-02-12T06:37:00;101293.28;;;4.59;100.00
69058;BME280;56128;37.534;-122.308;2023-02-12T06:39:26;101282.25;;;4.49;100.00
69058;BME280;56128;37.534;-122.308;2023-02-12T06:41:52;101290.38;;;4.45;100.00
69058;BME280;56128;37.534;-122.308;2023-02-12T06:44:19;101288.53;;;4.67;100.00
69058;BME280;56128;37.534;-122.308;2023-02-12T06:46:45;101302.63;;;4.68;100.00
69058;BME280;56128;37.534;-122.308;2023-02-12T06:49:12;101322.84;;;4.70;100.00
69058;BME280;56128;37.534;-122.308;2023-02-12T06:51:39;101337.16;;;4.66;100.00
69058;BME280;56128;37.534;-122.308;2023-02-12T06:54:15;101299.66;;;4.34;100.00
69058;BME280;56128;37.534;-122.308;2023-02-12T06:56:42;101311.22;;;4.32;100.00
69058;BME280;56128;37.534;-122.308;2023-02-12T06:59:12;101320.16;;;4.29;100.00
69058;BME280;56128;37.534;-122.308;2023-02-12T07:01:40;101331.47;;;4.33;100.00
69058;BME280;56128;37.534;-122.308;2023-02-12T07:04:06;101292.13;;;4.01;100.00
69058;BME280;56128;37.534;-122.308;2023-02-12T07:06:34;101337.22;;;4.22;100.00
69058;BME280;56128;37.534;-122.308;2023-02-12T07:09:00;101300.53;;;3.90;100.00
69058;BME280;56128;37.534;-122.308;2023-02-12T07:11:29;101330.09;;;4.02;100.00
69058;BME280;56128;37.534;-122.308;2023-02-12T07:13:56;101316.50;;;3.87;100.00
69058;BME280;56128;37.534;-122.308;2023-02-12T07:16:23;101355.94;;;3.95;100.00
69058;BME280;56128;37.534;-122.308;2023-02-12T07:18:49;101328.47;;;3.76;100.00
69058;BME280;56128;37.534;-122.308;2023-02-12T07:25:23;101302.19;;;3.47;100.00
69058;BME280;56128;37.534;-122.308;2023-02-12T07:45:49;101375.28;;;3.50;100.00
69058;BME280;56128;37.534;-122.308;2023-02-12T07:49:02;101387.81;;;3.45;100.00
69058;BME280;56128;37.534;-122.308;2023-02-12T07:59:42;101394.16;;;3.40;100.00
69058;BME280;56128;37.534;-122.308;2023-02-12T08:09:52;101401.53;;;3.31;100.00
69058;BME280;56128;37.534;-122.308;2023-02-12T08:29:29;101409.97;;;3.17;100.00
69058;BME280;56128;37.534;-122.308;2023-02-12T08:49:44;101390.34;;;2.99;100.00
69058;BME280;56128;37.534;-122.308;2023-02-12T09:21:12;101433.13;;;2.83;100.00
69058;BME280;56128;37.534;-122.308;2023-02-12T09:23:39;101384.75;;;2.54;100.00
69058;BME280;56128;37.534;-122.308;2023-02-12T09:26:11;101420.09;;;2.79;100.00
69058;BME280;56128;37.534;-122.308;2023-02-12T09:28:38;101419.13;;;2.81;100.00
69058;BME280;56128;37.534;-122.308;2023-02-12T09:31:39;101387.81;;;2.69;100.00
69058;BME280;56128;37.534;-122.308;2023-02-12T09:34:05;101374.94;;;2.58;100.00
69058;BME280;56128;37.534;-122.308;2023-02-12T09:36:32;101394.91;;;2.67;100.00
69058;BME280;56128;37.534;-122.308;2023-02-12T09:38:59;101420.81;;;2.82;100.00
69058;BME280;56128;37.534;-122.308;2023-02-12T09:47:20;101426.88;;;2.86;100.00
69058;BME280;56128;37.534;-122.308;2023-02-12T09:50:16;101417.47;;;2.77;100.00
69058;BME280;56128;37.534;-122.308;2023-02-12T09:52:46;101418.34;;;2.78;100.00
69058;BME280;56128;37.534;-122.308;2023-02-12T09:55:15;101424.34;;;2.83;100.00
69058;BME280;56128;37.534;-122.308;2023-02-12T09:57:43;101415.66;;;2.79;100.00
69058;BME280;56128;37.534;-122.308;2023-02-12T10:00:12;101422.72;;;2.79;100.00
69058;BME280;56128;37.534;-122.308;2023-02-12T10:02:40;101398.63;;;2.61;100.00
69058;BME280;56128;37.534;-122.308;2023-02-12T10:05:24;101391.69;;;2.57;100.00
69058;BME280;56128;37.534;-122.308;2023-02-12T10:13:53;101405.41;;;2.70;100.00
69058;BME280;56128;37.534;-122.308;2023-02-12T10:20:00;101411.63;;;2.67;100.00
69058;BME280;56128;37.534;-122.308;2023-02-12T10:25:31;101374.44;;;2.47;100.00
69058;BME280;56128;37.534;-122.308;2023-02-12T10:28:17;101389.25;;;2.51;100.00
69058;BME280;56128;37.534;-122.308;2023-02-12T10:39:11;101425.56;;;2.72;100.00
69058;BME280;56128;37.534;-122.308;2023-02-12T10:44:13;101389.31;;;2.49;100.00
69058;BME280;56128;37.534;-122.308;2023-02-12T10:46:39;101401.47;;;2.55;100.00
69058;BME280;56128;37.534;-122.308;2023-02-12T10:49:07;101413.53;;;2.62;100.00
69058;BME280;56128;37.534;-122.308;2023-02-12T10:52:08;101429.13;;;2.71;100.00
69058;BME280;56128;37.534;-122.308;2023-02-12T10:54:44;101431.06;;;2.66;100.00
69058;BME280;56128;37.534;-122.308;2023-02-12T10:59:41;101415.66;;;2.51;100.00
69058;BME280;56128;37.534;-122.308;2023-02-12T11:04:51;101409.97;;;2.36;100.00
69058;BME280;56128;37.534;-122.308;2023-02-12T11:07:19;101410.78;;;2.38;100.00
69058;BME280;56128;37.534;-122.308;2023-02-12T11:09:48;101433.56;;;2.42;100.00
69058;BME280;56128;37.534;-122.308;2023-02-12T11:14:53;101412.94;;;2.25;100.00
69058;BME280;56128;37.534;-122.308;2023-02-12T11:17:37;101410.25;;;2.27;100.00
69058;BME280;56128;37.534;-122.308;2023-02-12T11:23:02;101404.16;;;2.25;100.00
69058;BME280;56128;37.534;-122.308;2023-02-12T11:25:36;101401.41;;;2.28;100.00
69058;BME280;56128;37.534;-122.308;2023-02-12T11:28:15;101423.19;;;2.36;100.00
69058;BME280;56128;37.534;-122.308;2023-02-12T11:31:02;101389.56;;;2.13;100.00
69058;BME280;56128;37.534;-122.308;2023-02-12T11:33:31;101392.25;;;2.11;100.00
69058;BME280;56128;37.534;-122.308;2023-02-12T11:36:11;101402.63;;;2.18;100.00
69058;BME280;56128;37.534;-122.308;2023-02-12T11:38:51;101423.13;;;2.38;100.00
69058;BME280;56128;37.534;-122.308;2023-02-12T11:43:54;101404.38;;;2.19;100.00
69058;BME280;56128;37.534;-122.308;2023-02-12T11:46:24;101413.19;;;2.18;100.00
69058;BME280;56128;37.534;-122.308;2023-02-12T11:48:52;101413.38;;;2.11;100.00
69058;BME280;56128;37.534;-122.308;2023-02-12T11:51:29;101401.13;;;2.09;100.00
69058;BME280;56128;37.534;-122.308;2023-02-12T11:53:59;101427.22;;;2.20;100.00
69058;BME280;56128;37.534;-122.308;2023-02-12T11:56:47;101422.84;;;2.19;100.00
69058;BME280;56128;37.534;-122.308;2023-02-12T12:01:56;101399.44;;;2.06;100.00
69058;BME280;56128;37.534;-122.308;2023-02-12T12:04:27;101418.66;;;2.11;100.00
69058;BME280;56128;37.534;-122.308;2023-02-12T12:07:19;101405.78;;;2.01;100.00
69058;BME280;56128;37.534;-122.308;2023-02-12T12:09:58;101421.22;;;2.15;100.00
69058;BME280;56128;37.534;-122.308;2023-02-12T12:12:48;101430.94;;;2.13;100.00
69058;BME280;56128;37.534;-122.308;2023-02-12T12:15:21;101426.63;;;2.10;100.00
69058;BME280;56128;37.534;-122.308;2023-02-12T12:21:35;101433.03;;;2.01;100.00
69058;BME280;56128;37.534;-122.308;2023-02-12T12:24:19;101424.41;;;1.96;100.00
69058;BME280;56128;37.534;-122.308;2023-02-12T12:26:52;101388.81;;;1.80;100.00
69058;BME280;56128;37.534;-122.308;2023-02-12T12:29:45;101399.41;;;1.78;100.00
69058;BME280;56128;37.534;-122.308;2023-02-12T12:32:15;101383.00;;;1.68;100.00
69058;BME280;56128;37.534;-122.308;2023-02-12T12:34:44;101403.66;;;1.84;100.00
69058;BME280;56128;37.534;-122.308;2023-02-12T12:40:23;101414.22;;;1.84;100.00
69058;BME280;56128;37.534;-122.308;2023-02-12T12:46:13;101386.97;;;1.52;100.00
69058;BME280;56128;37.534;-122.308;2023-02-12T12:54:44;101425.88;;;1.75;100.00
69058;BME280;56128;37.534;-122.308;2023-02-12T13:00:23;101427.94;;;1.95;100.00
69058;BME280;56128;37.534;-122.308;2023-02-12T13:03:18;101419.31;;;1.90;100.00
69058;BME280;56128;37.534;-122.308;2023-02-12T13:11:48;101400.69;;;1.65;100.00
69058;BME280;56128;37.534;-122.308;2023-02-12T13:14:43;101423.03;;;1.83;100.00
69058;BME280;56128;37.534;-122.308;2023-02-12T13:17:24;101395.25;;;1.69;100.00
69058;BME280;56128;37.534;-122.308;2023-02-12T13:22:50;101411.75;;;1.77;100.00
69058;BME280;56128;37.534;-122.308;2023-02-12T13:27:53;101369.28;;;1.55;100.00
69058;BME280;56128;37.534;-122.308;2023-02-12T13:30:26;101376.16;;;1.61;100.00
69058;BME280;56128;37.534;-122.308;2023-02-12T13:33:09;101398.72;;;1.71;100.00
69058;BME280;56128;37.534;-122.308;2023-02-12T13:35:41;101377.97;;;1.59;100.00
69058;BME280;56128;37.534;-122.308;2023-02-12T13:38:17;101355.75;;;1.36;100.00
69058;BME280;56128;37.534;-122.308;2023-02-12T13:40:44;101375.84;;;1.40;100.00
69058;BME280;56128;37.534;-122.308;2023-02-12T13:43:25;101416.63;;;1.60;100.00
69058;BME280;56128;37.534;-122.308;2023-02-12T13:46:07;101367.53;;;1.24;100.00
69058;BME280;56128;37.534;-122.308;2023-02-12T13:49:09;101429.03;;;1.56;100.00
69058;BME280;56128;37.534;-122.308;2023-02-12T13:54:16;101441.56;;;1.50;100.00
69058;BME280;56128;37.534;-122.308;2023-02-12T13:56:48;101453.78;;;1.52;100.00
69058;BME280;56128;37.534;-122.308;2023-02-12T14:07:19;101427.34;;;1.22;100.00
69058;BME280;56128;37.534;-122.308;2023-02-12T14:14:55;101443.78;;;1.32;100.00
69058;BME280;56128;37.534;-122.308;2023-02-12T14:20:23;101465.31;;;1.48;100.00
69058;BME280;56128;37.534;-122.308;2023-02-12T14:28:11;101454.84;;;1.45;100.00
69058;BME280;56128;37.534;-122.308;2023-02-12T14:30:42;101475.69;;;1.54;100.00
69058;BME280;56128;37.534;-122.308;2023-02-12T14:33:19;101464.50;;;1.46;100.00
69058;BME280;56128;37.534;-122.308;2023-02-12T14:35:47;101437.56;;;1.35;100.00
69058;BME280;56128;37.534;-122.308;2023-02-12T14:40:45;101460.91;;;1.49;100.00
69058;BME280;56128;37.534;-122.308;2023-02-12T14:43:37;101467.75;;;1.56;100.00
69058;BME280;56128;37.534;-122.308;2023-02-12T14:51:32;101481.75;;;1.58;100.00
69058;BME280;56128;37.534;-122.308;2023-02-12T14:54:01;101472.38;;;1.48;100.00
69058;BME280;56128;37.534;-122.308;2023-02-12T14:56:35;101452.50;;;1.34;100.00
69058;BME280;56128;37.534;-122.308;2023-02-12T14:59:15;101462.81;;;1.43;100.00
69058;BME280;56128;37.534;-122.308;2023-02-12T15:01:45;101459.38;;;1.40;100.00
69058;BME280;56128;37.534;-122.308;2023-02-12T15:04:26;101483.59;;;1.56;100.00
69058;BME280;56128;37.534;-122.308;2023-02-12T15:07:16;101473.38;;;1.43;100.00
69058;BME280;56128;37.534;-122.308;2023-02-12T15:09:50;101509.69;;;1.65;100.00
69058;BME280;56128;37.534;-122.308;2023-02-12T15:12:33;101511.34;;;1.69;100.00
69058;BME280;56128;37.534;-122.308;2023-02-12T15:15:03;101510.50;;;1.69;100.00
69058;BME280;56128;37.534;-122.308;2023-02-12T15:17:34;101494.94;;;1.58;100.00
69058;BME280;56128;37.534;-122.308;2023-02-12T15:20:12;101503.47;;;1.68;100.00
69058;BME280;56128;37.534;-122.308;2023-02-12T15:22:42;101518.19;;;1.76;100.00
69058;BME280;56128;37.534;-122.308;2023-02-12T15:25:28;101483.41;;;1.62;100.00
69058;BME280;56128;37.534;-122.308;2023-02-12T15:28:29;101470.28;;;1.59;100.00
69058;BME280;56128;37.534;-122.308;2023-02-12T15:30:48;101461.38;;;1.63;100.00
69058;BME280;56128;37.534;-122.308;2023-02-12T15:33:26;101497.59;;;1.89;100.00
69058;BME280;56128;37.534;-122.308;2023-02-12T15:35:53;101492.31;;;1.89;100.00
69058;BME280;56128;37.534;-122.308;2023-02-12T15:38:26;101481.63;;;1.94;100.00
69058;BME280;56128;37.534;-122.308;2023-02-12T15:40:57;101513.53;;;2.18;100.00
69058;BME280;56128;37.534;-122.308;2023-02-12T15:43:27;101500.38;;;2.16;100.00
69058;BME280;56128;37.534;-122.308;2023-02-12T15:45:56;101523.50;;;2.38;100.00
69058;BME280;56128;37.534;-122.308;2023-02-12T15:48:29;101500.97;;;2.26;100.00
69058;BME280;56128;37.534;-122.308;2023-02-12T15:51:36;101513.03;;;2.35;100.00
69058;BME280;56128;37.534;-122.308;2023-02-12T15:53:54;101502.31;;;2.39;100.00
69058;BME280;56128;37.534;-122.308;2023-02-12T15:56:22;101513.47;;;2.49;100.00
69058;BME280;56128;37.534;-122.308;2023-02-12T15:58:52;101514.88;;;2.61;100.00
69058;BME280;56128;37.534;-122.308;2023-02-12T16:01:25;101518.06;;;2.72;100.00
69058;BME280;56128;37.534;-122.308;2023-02-12T16:04:00;101514.91;;;2.88;100.00
69058;BME280;56128;37.534;-122.308;2023-02-12T16:06:29;101525.09;;;3.00;100.00
69058;BME280;56128;37.534;-122.308;2023-02-12T16:11:43;101506.50;;;3.30;100.00
69058;BME280;56128;37.534;-122.308;2023-02-12T16:14:40;101544.91;;;3.67;100.00
69058;BME280;56128;37.534;-122.308;2023-02-12T16:22:47;101529.16;;;4.13;100.00
69058;BME280;56128;37.534;-122.308;2023-02-12T16:25:26;101544.16;;;4.38;100.00
69058;BME280;56128;37.534;-122.308;2023-02-12T16:28:01;101522.94;;;4.38;100.00
69058;BME280;56128;37.534;-122.308;2023-02-12T16:30:39;101490.50;;;4.31;100.00
69058;BME280;56128;37.534;-122.308;2023-02-12T16:33:30;101531.31;;;4.73;100.00
69058;BME280;56128;37.534;-122.308;2023-02-12T16:36:25;101532.09;;;4.75;100.00
69058;BME280;56128;37.534;-122.308;2023-02-12T16:38:53;101536.78;;;4.91;100.00
69058;BME280;56128;37.534;-122.308;2023-02-12T16:41:29;101505.03;;;4.89;100.00
69058;BME280;56128;37.534;-122.308;2023-02-12T16:46:30;101499.41;;;5.19;100.00
69058;BME280;56128;37.534;-122.308;2023-02-12T16:48:58;101517.88;;;5.63;100.00
69058;BME280;56128;37.534;-122.308;2023-02-12T16:51:28;101506.19;;;5.67;100.00
69058;BME280;56128;37.534;-122.308;2023-02-12T16:53:57;101508.97;;;5.85;100.00
69058;BME280;56128;37.534;-122.308;2023-02-12T16:56:25;101508.97;;;6.06;100.00
69058;BME280;56128;37.534;-122.308;2023-02-12T16:58:55;101520.88;;;6.16;100.00
69058;BME280;56128;37.534;-122.308;2023-02-12T17:03:54;101527.53;;;6.64;100.00
69058;BME280;56128;37.534;-122.308;2023-02-12T17:06:24;101513.00;;;6.72;100.00
69058;BME280;56128;37.534;-122.308;2023-02-12T17:08:51;101510.53;;;6.86;100.00
69058;BME280;56128;37.534;-122.308;2023-02-12T17:11:18;101521.69;;;7.12;100.00
69058;BME280;56128;37.534;-122.308;2023-02-12T17:13:46;101511.69;;;7.17;100.00
69058;BME280;56128;37.534;-122.308;2023-02-12T17:16:13;101514.84;;;7.60;100.00
69058;BME280;56128;37.534;-122.308;2023-02-12T17:18:40;101526.22;;;8.31;100.00
69058;BME280;56128;37.534;-122.308;2023-02-12T17:21:18;101520.09;;;8.79;100.00
69058;BME280;56128;37.534;-122.308;2023-02-12T17:23:46;101532.28;;;9.45;100.00
69058;BME280;56128;37.534;-122.308;2023-02-12T17:26:12;101533.13;;;10.05;100.00
69058;BME280;56128;37.534;-122.308;2023-02-12T17:28:38;101501.03;;;10.34;100.00
69058;BME280;56128;37.534;-122.308;2023-02-12T17:31:07;101522.94;;;10.82;100.00
69058;BME280;56128;37.534;-122.308;2023-02-12T17:33:34;101513.22;;;11.21;100.00
69058;BME280;56128;37.534;-122.308;2023-02-12T17:36:00;101519.53;;;11.61;100.00
69058;BME280;56128;37.534;-122.308;2023-02-12T17:38:27;101528.59;;;11.98;100.00
69058;BME280;56128;37.534;-122.308;2023-02-12T17:40:53;101528.97;;;12.31;100.00
69058;BME280;56128;37.534;-122.308;2023-02-12T17:43:23;101499.53;;;12.55;100.00
69058;BME280;56128;37.534;-122.308;2023-02-12T17:45:49;101518.28;;;12.92;100.00
69058;BME280;56128;37.534;-122.308;2023-02-12T17:48:18;101511.09;;;13.17;100.00
69058;BME280;56128;37.534;-122.308;2023-02-12T17:50:52;101511.50;;;13.48;100.00
69058;BME280;56128;37.534;-122.308;2023-02-12T17:53:22;101520.09;;;13.64;100.00
69058;BME280;56128;37.534;-122.308;2023-02-12T17:55:48;101516.59;;;13.98;100.00
69058;BME280;56128;37.534;-122.308;2023-02-12T17:58:15;101501.06;;;14.02;97.79
69058;BME280;56128;37.534;-122.308;2023-02-12T18:00:41;101502.16;;;13.99;96.77
69058;BME280;56128;37.534;-122.308;2023-02-12T18:03:07;101505.84;;;14.32;96.41
69058;BME280;56128;37.534;-122.308;2023-02-12T18:05:39;101515.84;;;14.53;90.03
69058;BME280;56128;37.534;-122.308;2023-02-12T18:08:07;101507.59;;;14.88;99.35
69058;BME280;56128;37.534;-122.308;2023-02-12T18:10:41;101513.13;;;14.64;87.00
69058;BME280;56128;37.534;-122.308;2023-02-12T18:13:08;101499.44;;;14.67;89.98
69058;BME280;56128;37.534;-122.308;2023-02-12T18:15:35;101496.84;;;15.09;86.64
69058;BME280;56128;37.534;-122.308;2023-02-12T18:18:02;101510.59;;;15.06;79.93